GQNO

Nouakchott–Oumtounsy International Airport

Nouakchott, Mauritania
METAR GQNO 261230Z 07013KT 7000 NSC 33/06 Q1013 NOSIG
Observed Flight Rules
Apr-26 @ 12:30 UTC (an hour ago) Marginal Visual Flight Rules
Wind Visibility Clouds
70° at 13 knots 7,001 meters
  • Clear skies
Temperatures Readings
Current 33°C / 91°F
Dewpoint 6°C / 43°F
Humidity 18%
Altimeter 29.91" Hg
Pressure 1013 hPa
Elevation 4
METAR GQNO 261230Z 07013KT 7000 NSC 33/06 Q1013 NOSIG
Observed Flight Rules
Apr-26 @ 12:30 UTC
(an hour ago)
MVFR
Wind Visibility
70° at 13 knots 7,001 meters
Clouds
  • Clear skies
Temperature Dewpoint
33°C / 91°F 6°C / 43°F
Humidity Altimeter Pressure
18% 29.91" Hg 1013 hPa